Time;durP1;ratioP1;P1;durP2;ratioP2;P2;SDS_P1;SDS_P2;PMS_P1;PMS_P2;Temp;Humidity;BMP_temperature;BMP_pressure;BME280_temperature;BME280_humidity;BME280_pressure;Samples;Min_cycle;Max_cycle;Signal;HPM_P1;HPM_P2
2020/12/31 00:01:28;;;;;;;38.58;16.70;;;2.80;99.90;;;;;;5074109;28;20071;-84
2020/12/31 00:03:55;;;;;;;30.73;17.55;;;2.80;99.90;;;;;;5074225;28;20422;-85
2020/12/31 00:06:21;;;;;;;29.83;16.85;;;2.80;99.90;;;;;;5091421;28;20036;-85
2020/12/31 00:08:47;;;;;;;38.33;17.65;;;2.80;99.90;;;;;;5099775;28;20044;-84
2020/12/31 00:11:13;;;;;;;30.23;17.00;;;2.80;99.90;;;;;;5111588;28;20044;-85
2020/12/31 00:13:39;;;;;;;33.10;17.45;;;2.80;99.90;;;;;;5076786;28;20049;-84
2020/12/31 00:16:05;;;;;;;34.88;18.38;;;2.70;99.90;;;;;;5094257;28;20039;-84
2020/12/31 00:18:31;;;;;;;33.63;18.02;;;2.80;99.90;;;;;;5111924;28;20096;-84
2020/12/31 00:20:57;;;;;;;34.35;19.35;;;2.80;99.90;;;;;;5094045;28;20040;-84
2020/12/31 00:23:23;;;;;;;43.45;19.98;;;2.80;99.90;;;;;;5111698;28;20047;-85
2020/12/31 00:25:51;;;;;;;37.85;20.98;;;2.80;99.90;;;;;;5069797;28;20182;-86
2020/12/31 00:28:18;;;;;;;41.30;21.55;;;2.80;99.90;;;;;;5071548;28;20075;-88
2020/12/31 00:30:44;;;;;;;45.05;21.25;;;2.80;99.90;;;;;;5070315;28;20476;-86
2020/12/31 00:33:14;;;;;;;39.90;21.30;;;2.80;99.90;;;;;;5071141;28;20109;-85
2020/12/31 00:35:40;;;;;;;43.03;23.58;;;2.80;99.90;;;;;;5053332;28;20553;-85
2020/12/31 00:38:06;;;;;;;43.35;23.15;;;2.80;99.90;;;;;;5070112;28;20076;-85
2020/12/31 00:40:33;;;;;;;41.47;25.08;;;2.90;99.90;;;;;;5079140;28;20083;-85
2020/12/31 00:43:00;;;;;;;50.70;25.80;;;2.90;99.90;;;;;;5070052;28;20049;-84
2020/12/31 00:45:27;;;;;;;51.53;25.65;;;2.90;99.90;;;;;;5053369;28;20480;-84
2020/12/31 00:47:53;;;;;;;55.63;26.55;;;3.00;99.90;;;;;;5070553;28;20450;-84
2020/12/31 00:50:19;;;;;;;49.70;26.42;;;3.00;99.90;;;;;;5079720;28;20506;-87
2020/12/31 00:52:48;;;;;;;48.13;25.73;;;3.00;99.90;;;;;;5090414;28;20056;-85
2020/12/31 00:55:14;;;;;;;53.63;27.65;;;3.10;99.90;;;;;;5090620;28;20467;-85
2020/12/31 00:57:40;;;;;;;53.35;28.67;;;3.10;99.90;;;;;;5073100;28;20040;-86
2020/12/31 01:00:06;;;;;;;47.88;26.42;;;3.10;99.90;;;;;;5053673;28;20036;-85
2020/12/31 01:02:32;;;;;;;55.50;28.90;;;3.20;99.90;;;;;;5084909;28;20090;-85
2020/12/31 01:04:57;;;;;;;52.70;29.85;;;3.10;99.90;;;;;;5052174;28;20048;-84
2020/12/31 01:07:23;;;;;;;48.22;27.38;;;3.20;99.90;;;;;;5051695;28;20053;-89
2020/12/31 01:09:49;;;;;;;47.42;28.50;;;3.20;99.90;;;;;;5072793;28;20113;-86
2020/12/31 01:12:15;;;;;;;58.92;29.52;;;3.20;99.90;;;;;;5093785;28;20900;-85
2020/12/31 01:14:41;;;;;;;57.47;29.08;;;3.20;99.90;;;;;;5092445;28;20036;-85
2020/12/31 01:17:06;;;;;;;50.70;28.70;;;3.20;99.90;;;;;;5093734;28;20040;-85
2020/12/31 01:19:32;;;;;;;49.85;28.50;;;3.30;99.90;;;;;;5060311;28;20403;-85
2020/12/31 01:21:58;;;;;;;53.90;30.05;;;3.30;99.90;;;;;;5095039;28;20399;-84
2020/12/31 01:24:24;;;;;;;54.85;30.00;;;3.30;99.90;;;;;;5093763;28;20540;-91
2020/12/31 01:26:50;;;;;;;51.25;28.48;;;3.30;99.90;;;;;;5093493;28;20055;-86
2020/12/31 01:29:16;;;;;;;61.00;30.58;;;3.30;99.90;;;;;;5093928;28;20514;-86
2020/12/31 01:31:47;;;;;;;46.33;29.20;;;3.40;99.90;;;;;;5093367;28;20032;-85
2020/12/31 01:34:13;;;;;;;50.20;29.83;;;3.30;99.90;;;;;;5093947;28;20047;-85
2020/12/31 01:36:39;;;;;;;48.97;29.83;;;3.30;99.90;;;;;;5093106;28;20391;-85
2020/12/31 01:39:04;;;;;;;56.00;31.42;;;3.30;99.90;;;;;;5093381;28;20046;-86
2020/12/31 01:41:30;;;;;;;50.75;29.02;;;3.30;99.90;;;;;;5076262;28;20040;-85
2020/12/31 01:44:03;;;;;;;53.38;30.60;;;3.30;99.90;;;;;;5094671;28;20046;-85
2020/12/31 01:46:32;;;;;;;48.20;28.02;;;3.30;99.90;;;;;;5076257;28;20052;-85
2020/12/31 01:48:58;;;;;;;54.10;29.83;;;3.30;99.90;;;;;;5094422;28;20123;-85
2020/12/31 01:51:24;;;;;;;58.28;30.38;;;3.30;99.90;;;;;;5076226;28;20039;-92
2020/12/31 01:53:56;;;;;;;53.55;31.13;;;3.50;99.90;;;;;;5093102;28;20043;-85
2020/12/31 01:56:30;;;;;;;51.13;29.73;;;3.40;99.90;;;;;;5077072;28;20122;-85
2020/12/31 01:58:57;;;;;;;46.28;27.50;;;3.40;99.90;;;;;;5076689;28;20105;-86
2020/12/31 02:01:23;;;;;;;51.97;31.05;;;3.40;99.90;;;;;;5092996;28;20040;-89
2020/12/31 02:03:50;;;;;;;47.45;28.38;;;3.40;99.90;;;;;;5092886;28;20040;-85
2020/12/31 02:06:17;;;;;;;53.83;30.25;;;3.40;99.90;;;;;;5093080;28;20048;-84
2020/12/31 02:08:44;;;;;;;44.63;28.95;;;3.40;99.90;;;;;;5092441;28;20105;-85
2020/12/31 02:11:16;;;;;;;52.33;29.63;;;3.40;99.90;;;;;;5094088;28;20496;-86
2020/12/31 02:13:43;;;;;;;50.33;31.13;;;3.40;99.90;;;;;;5093791;28;20468;-85
2020/12/31 02:16:14;;;;;;;53.17;30.58;;;3.40;99.90;;;;;;5094158;28;20063;-85
2020/12/31 02:18:55;;;;;;;52.35;31.77;;;3.40;99.90;;;;;;5092291;28;20892;-85
2020/12/31 02:21:47;;;;;;;51.75;30.35;;;3.40;99.90;;;;;;5093956;28;20036;-86
2020/12/31 02:24:14;;;;;;;50.17;30.00;;;3.50;99.90;;;;;;5082319;28;20068;-85
2020/12/31 02:26:41;;;;;;;52.63;31.20;;;3.50;99.90;;;;;;5107436;28;20051;-86
2020/12/31 02:29:09;;;;;;;54.55;30.90;;;3.60;99.90;;;;;;5079272;28;20062;-85
2020/12/31 02:31:37;;;;;;;53.72;30.40;;;3.50;99.90;;;;;;5078881;28;20102;-85
2020/12/31 02:34:03;;;;;;;50.10;30.13;;;3.40;99.90;;;;;;5114160;28;20042;-86
2020/12/31 02:36:35;;;;;;;48.40;29.17;;;3.40;99.90;;;;;;5095446;28;20048;-89
2020/12/31 02:39:04;;;;;;;51.65;30.60;;;3.50;99.90;;;;;;5114199;28;20047;-85
2020/12/31 02:41:30;;;;;;;51.55;31.13;;;3.50;99.90;;;;;;5095655;28;20486;-90
2020/12/31 02:43:56;;;;;;;54.22;29.92;;;3.40;99.90;;;;;;5095893;28;20067;-85
2020/12/31 02:46:21;;;;;;;55.60;32.30;;;3.40;99.90;;;;;;5079001;28;20084;-85
2020/12/31 02:48:49;;;;;;;53.35;30.83;;;3.50;99.90;;;;;;5113442;28;20046;-85
2020/12/31 02:51:15;;;;;;;50.55;30.48;;;3.40;99.90;;;;;;5079118;28;20035;-85
2020/12/31 02:53:41;;;;;;;49.58;30.48;;;3.40;99.90;;;;;;5095251;28;20039;-84
2020/12/31 02:56:15;;;;;;;45.20;30.38;;;3.50;99.90;;;;;;5095614;28;20410;-89
2020/12/31 02:58:41;;;;;;;49.72;30.02;;;3.40;99.90;;;;;;5095135;28;20164;-84
2020/12/31 03:01:07;;;;;;;48.78;28.92;;;3.40;99.90;;;;;;5095732;28;20561;-86
2020/12/31 03:03:37;;;;;;;47.25;28.20;;;3.40;99.90;;;;;;5113064;28;20453;-85
2020/12/31 03:06:06;;;;;;;53.78;30.58;;;3.40;99.90;;;;;;5095515;28;20483;-86
2020/12/31 03:08:33;;;;;;;49.35;29.90;;;3.40;99.90;;;;;;5112884;28;20039;-90
2020/12/31 03:10:59;;;;;;;48.63;29.08;;;3.40;99.90;;;;;;5078795;28;20048;-88
2020/12/31 03:13:26;;;;;;;57.42;30.23;;;3.40;99.90;;;;;;5095389;28;20044;-85
2020/12/31 03:15:55;;;;;;;43.05;27.23;;;3.40;99.90;;;;;;5113060;28;20527;-86
2020/12/31 03:18:22;;;;;;;45.10;29.15;;;3.50;99.90;;;;;;5095081;28;20039;-85
2020/12/31 03:20:49;;;;;;;45.70;29.05;;;3.40;99.90;;;;;;5112728;28;20078;-88
2020/12/31 03:23:15;;;;;;;42.25;26.73;;;3.40;99.90;;;;;;5095237;28;20092;-84
2020/12/31 03:25:42;;;;;;;49.20;27.92;;;3.40;99.90;;;;;;5112382;28;20078;-84
2020/12/31 03:28:09;;;;;;;42.47;26.45;;;3.30;99.90;;;;;;5112812;28;20398;-85
2020/12/31 03:30:36;;;;;;;43.20;26.85;;;3.30;99.90;;;;;;5093673;28;20447;-88
2020/12/31 03:33:03;;;;;;;47.83;26.60;;;3.40;99.90;;;;;;5078286;28;20508;-84
2020/12/31 03:35:29;;;;;;;45.75;27.13;;;3.40;99.90;;;;;;5112885;28;20043;-84
2020/12/31 03:37:55;;;;;;;37.63;26.85;;;3.40;99.90;;;;;;5060623;28;20047;-84
2020/12/31 03:40:21;;;;;;;43.33;27.55;;;3.40;99.90;;;;;;5112636;28;20078;-84
2020/12/31 03:42:47;;;;;;;49.17;27.10;;;3.40;99.90;;;;;;5076895;28;20397;-84
2020/12/31 03:45:13;;;;;;;48.08;28.25;;;3.40;99.90;;;;;;5112308;28;20047;-84
2020/12/31 03:47:39;;;;;;;40.55;26.42;;;3.40;99.90;;;;;;5093701;28;20039;-84
2020/12/31 03:50:06;;;;;;;44.83;27.85;;;3.40;99.90;;;;;;5094171;28;20042;-84
2020/12/31 03:52:32;;;;;;;35.22;24.50;;;3.40;99.90;;;;;;5094440;28;20040;-85
2020/12/31 03:54:58;;;;;;;40.90;27.00;;;3.40;99.90;;;;;;5077181;28;20054;-84
2020/12/31 03:57:24;;;;;;;40.15;25.30;;;3.40;99.90;;;;;;5094091;28;20043;-84
2020/12/31 03:59:49;;;;;;;34.58;25.02;;;3.40;99.90;;;;;;5073036;28;20048;-85
2020/12/31 04:02:15;;;;;;;36.28;24.50;;;3.40;99.90;;;;;;5074100;28;20058;-88
2020/12/31 04:04:41;;;;;;;37.33;25.63;;;3.40;99.90;;;;;;5040338;28;20399;-87
2020/12/31 04:07:06;;;;;;;44.67;25.30;;;3.50;99.90;;;;;;5091765;28;20240;-85
2020/12/31 04:09:32;;;;;;;40.25;25.02;;;3.40;99.90;;;;;;5073994;28;20505;-84
2020/12/31 04:11:59;;;;;;;37.28;25.05;;;3.40;99.90;;;;;;5091552;28;20044;-85
2020/12/31 04:14:25;;;;;;;36.92;24.80;;;3.40;99.90;;;;;;5091971;28;20052;-85
2020/12/31 04:16:51;;;;;;;45.25;24.08;;;3.40;99.90;;;;;;5073189;28;20086;-84
2020/12/31 04:19:17;;;;;;;41.60;24.85;;;3.40;99.90;;;;;;5092044;28;20040;-84
2020/12/31 04:21:42;;;;;;;40.67;24.95;;;3.40;99.90;;;;;;5073220;28;20075;-84
2020/12/31 04:24:08;;;;;;;36.63;25.20;;;3.40;99.90;;;;;;5079685;28;20118;-84
2020/12/31 04:26:34;;;;;;;38.10;24.48;;;3.40;99.90;;;;;;5111856;28;20062;-84
2020/12/31 04:29:00;;;;;;;38.83;23.77;;;3.50;99.90;;;;;;5111172;28;20061;-85
2020/12/31 04:31:26;;;;;;;37.10;24.90;;;3.40;99.90;;;;;;5111612;28;20040;-84
2020/12/31 04:33:51;;;;;;;37.42;23.70;;;3.40;99.90;;;;;;5092628;28;20044;-84
2020/12/31 04:36:18;;;;;;;41.65;23.15;;;3.30;99.90;;;;;;5076508;28;20043;-83
2020/12/31 04:38:44;;;;;;;39.97;25.13;;;3.30;99.90;;;;;;5092710;28;20050;-84
2020/12/31 04:41:12;;;;;;;41.05;25.02;;;3.30;99.90;;;;;;5092909;28;20114;-84
2020/12/31 04:43:38;;;;;;;33.05;23.25;;;3.20;99.90;;;;;;5096233;28;20403;-86
2020/12/31 04:46:08;;;;;;;34.55;22.85;;;3.20;99.90;;;;;;5114529;28;20038;-83
2020/12/31 04:48:41;;;;;;;37.30;24.27;;;3.20;99.90;;;;;;5093807;28;20043;-83
2020/12/31 04:51:10;;;;;;;30.75;21.88;;;3.20;99.90;;;;;;5088593;28;20070;-83
2020/12/31 04:53:38;;;;;;;33.20;21.67;;;3.20;99.90;;;;;;5096566;28;20031;-83
2020/12/31 04:56:04;;;;;;;31.20;21.33;;;3.20;99.90;;;;;;5113977;28;20471;-83
2020/12/31 04:58:31;;;;;;;29.17;20.90;;;3.20;99.90;;;;;;5096407;28;20040;-83
2020/12/31 05:00:57;;;;;;;31.63;21.52;;;3.30;99.90;;;;;;5066214;28;20039;-83
2020/12/31 05:03:23;;;;;;;26.05;20.00;;;3.30;99.90;;;;;;5095130;28;20040;-83
2020/12/31 05:05:56;;;;;;;32.92;20.00;;;3.30;99.90;;;;;;5113735;28;20040;-82
2020/12/31 05:08:27;;;;;;;32.03;19.77;;;3.30;99.90;;;;;;5113989;28;20036;-83
2020/12/31 05:10:56;;;;;;;30.20;19.65;;;3.30;99.90;;;;;;5079259;28;20050;-84
2020/12/31 05:13:22;;;;;;;32.67;20.02;;;3.20;99.90;;;;;;5097022;28;20047;-84
2020/12/31 05:15:48;;;;;;;28.08;20.77;;;3.30;99.90;;;;;;5079138;28;20119;-84
2020/12/31 05:18:17;;;;;;;28.55;19.33;;;3.30;99.90;;;;;;5097039;28;20050;-84
2020/12/31 05:20:46;;;;;;;27.38;18.33;;;3.30;99.90;;;;;;5096485;28;20122;-89
2020/12/31 05:23:23;;;;;;;25.63;18.05;;;3.30;99.90;;;;;;5115027;28;20047;-84
2020/12/31 05:25:49;;;;;;;27.20;17.73;;;3.30;99.90;;;;;;5114199;28;20052;-83
2020/12/31 05:28:24;;;;;;;21.45;17.20;;;3.30;99.90;;;;;;5096670;28;20051;-86
2020/12/31 05:30:55;;;;;;;25.15;17.25;;;3.20;99.90;;;;;;5114419;28;20043;-83
2020/12/31 05:33:31;;;;;;;25.63;18.23;;;3.20;99.90;;;;;;5114785;28;20066;-84
2020/12/31 05:36:26;;;;;;;26.85;18.40;;;3.20;99.90;;;;;;5113618;28;20096;-84
2020/12/31 05:38:57;;;;;;;30.02;17.45;;;3.20;99.90;;;;;;5112986;28;20047;-84
2020/12/31 05:41:34;;;;;;;27.75;19.25;;;3.20;99.90;;;;;;5113244;28;20051;-87
2020/12/31 05:44:07;;;;;;;25.67;17.75;;;3.20;99.90;;;;;;5095196;28;20123;-84
2020/12/31 05:46:37;;;;;;;26.02;17.67;;;3.10;99.90;;;;;;5095892;28;20043;-84
2020/12/31 05:49:10;;;;;;;29.58;19.45;;;3.10;99.90;;;;;;5094829;28;20712;-84
2020/12/31 05:51:41;;;;;;;29.58;20.17;;;3.20;99.90;;;;;;5092994;28;20051;-84
2020/12/31 05:54:14;;;;;;;29.10;20.85;;;3.20;99.90;;;;;;5074518;28;20047;-84
2020/12/31 05:56:41;;;;;;;32.47;21.80;;;3.20;99.90;;;;;;5108973;28;20478;-83
2020/12/31 05:59:22;;;;;;;32.60;22.63;;;3.20;99.90;;;;;;5112412;28;20388;-83
2020/12/31 06:01:56;;;;;;;30.70;21.08;;;3.20;99.90;;;;;;5094189;28;20483;-86
2020/12/31 06:04:40;;;;;;;30.50;21.50;;;3.20;99.90;;;;;;5095786;28;20051;-84
2020/12/31 06:07:06;;;;;;;34.03;22.10;;;3.20;99.90;;;;;;5113035;28;20612;-83
2020/12/31 06:09:34;;;;;;;35.88;23.05;;;3.20;99.90;;;;;;5079065;28;20047;-83
2020/12/31 06:12:06;;;;;;;36.60;22.35;;;3.20;99.90;;;;;;5094894;28;20079;-84
2020/12/31 06:14:33;;;;;;;33.05;22.35;;;3.30;99.90;;;;;;5095639;28;20126;-83
2020/12/31 06:17:04;;;;;;;36.72;24.08;;;3.30;99.90;;;;;;5078904;28;20467;-83
2020/12/31 06:19:36;;;;;;;36.05;23.40;;;3.20;99.90;;;;;;5096273;28;20044;-83
2020/12/31 06:22:05;;;;;;;35.58;23.35;;;3.20;99.90;;;;;;5112747;28;20114;-83
2020/12/31 06:24:38;;;;;;;37.15;23.55;;;3.20;99.90;;;;;;5113146;28;20035;-83
2020/12/31 06:27:09;;;;;;;33.17;20.15;;;3.20;99.90;;;;;;5112554;28;20467;-83
2020/12/31 06:29:46;;;;;;;35.88;22.17;;;3.20;99.90;;;;;;5065304;28;20189;-84
2020/12/31 06:32:20;;;;;;;33.80;21.63;;;3.10;99.90;;;;;;5084685;28;20051;-84
2020/12/31 06:34:47;;;;;;;36.38;22.90;;;3.20;99.90;;;;;;5113141;28;20039;-86
2020/12/31 06:37:13;;;;;;;33.38;23.02;;;3.20;99.90;;;;;;5112958;28;20431;-84
2020/12/31 06:39:40;;;;;;;34.35;21.20;;;3.20;99.90;;;;;;5095057;28;20131;-83
2020/12/31 06:42:07;;;;;;;31.15;21.60;;;3.20;99.90;;;;;;5112755;28;20480;-83
2020/12/31 06:44:33;;;;;;;30.63;20.83;;;3.20;99.90;;;;;;5113532;28;20092;-84
2020/12/31 06:46:59;;;;;;;30.15;21.00;;;3.20;99.90;;;;;;5113185;28;20407;-86
2020/12/31 06:49:52;;;;;;;29.27;20.15;;;3.20;99.90;;;;;;5113838;28;20043;-84
2020/12/31 06:52:20;;;;;;;29.30;19.85;;;3.20;99.90;;;;;;5100591;28;20048;-84
2020/12/31 06:54:46;;;;;;;26.50;19.13;;;3.20;99.90;;;;;;5113207;28;20445;-84
2020/12/31 06:57:12;;;;;;;29.90;19.70;;;3.20;99.90;;;;;;5094766;28;20043;-84
2020/12/31 06:59:43;;;;;;;31.10;21.25;;;3.20;99.90;;;;;;5094824;28;20059;-84
2020/12/31 07:02:12;;;;;;;28.48;20.27;;;3.20;99.90;;;;;;5111920;28;20047;-83
2020/12/31 07:04:42;;;;;;;30.52;19.95;;;3.20;99.90;;;;;;5094772;28;20407;-83
2020/12/31 07:07:20;;;;;;;28.77;20.08;;;3.20;99.90;;;;;;5074785;28;20047;-84
2020/12/31 07:09:59;;;;;;;29.10;20.85;;;3.20;99.90;;;;;;5095193;28;20052;-84
2020/12/31 07:12:55;;;;;;;31.52;20.48;;;3.30;99.90;;;;;;5094284;28;20047;-83
2020/12/31 07:15:20;;;;;;;28.48;19.75;;;3.30;99.90;;;;;;5112061;28;20142;-84
2020/12/31 07:17:47;;;;;;;29.95;20.48;;;3.30;99.90;;;;;;5077682;28;20453;-85
2020/12/31 07:20:18;;;;;;;26.27;18.70;;;3.30;99.90;;;;;;5077153;28;20040;-84
2020/12/31 07:22:45;;;;;;;;;;;3.30;99.90;;;;;;5112811;28;20035;-84
2020/12/31 07:25:16;;;;;;;24.45;17.70;;;3.30;99.90;;;;;;5112005;28;20323;-85
2020/12/31 07:27:46;;;;;;;27.17;18.73;;;3.30;99.90;;;;;;5094482;28;20089;-84
2020/12/31 07:30:17;;;;;;;29.42;19.73;;;3.30;99.90;;;;;;5112335;28;20047;-84
2020/12/31 07:32:59;;;;;;;29.67;20.58;;;3.40;99.90;;;;;;5094314;28;20044;-84
2020/12/31 07:35:29;;;;;;;29.10;19.38;;;3.40;99.90;;;;;;5113000;28;20036;-84
2020/12/31 07:38:00;;;;;;;38.30;21.45;;;3.40;99.90;;;;;;5094266;28;20043;-87
2020/12/31 07:40:26;;;;;;;32.60;19.98;;;3.50;99.90;;;;;;5094512;28;20039;-84
2020/12/31 07:42:52;;;;;;;30.65;19.92;;;3.40;99.90;;;;;;5094055;28;20585;-84
2020/12/31 07:45:17;;;;;;;33.63;21.67;;;3.40;99.90;;;;;;5111667;28;20050;-84
2020/12/31 07:47:51;;;;;;;28.60;18.88;;;3.40;99.90;;;;;;5061728;28;20046;-84
2020/12/31 07:50:17;;;;;;;28.33;19.13;;;3.40;99.90;;;;;;5087912;28;20193;-84
2020/12/31 07:52:43;;;;;;;30.45;21.15;;;3.40;99.90;;;;;;5072489;28;20044;-85
2020/12/31 07:55:09;;;;;;;29.20;20.60;;;3.50;99.90;;;;;;5109514;28;20028;-85
2020/12/31 07:57:38;;;;;;;28.25;20.23;;;3.50;99.90;;;;;;5077372;28;20747;-85
2020/12/31 08:00:04;;;;;;;26.35;19.88;;;3.50;99.90;;;;;;5093595;28;20047;-85
2020/12/31 08:02:31;;;;;;;32.55;20.60;;;3.50;99.90;;;;;;5094004;28;20066;-86
2020/12/31 08:04:57;;;;;;;30.73;20.63;;;3.40;99.90;;;;;;5093858;28;20066;-90
2020/12/31 08:07:23;;;;;;;31.73;19.73;;;3.50;99.90;;;;;;5111830;28;20475;-89
2020/12/31 08:09:50;;;;;;;33.50;20.50;;;3.50;99.90;;;;;;5094329;28;20117;-84
2020/12/31 08:12:16;;;;;;;26.35;19.52;;;3.40;99.90;;;;;;5093618;28;20048;-84
2020/12/31 08:14:43;;;;;;;28.13;20.30;;;3.50;99.90;;;;;;5094039;28;20044;-84
2020/12/31 08:17:09;;;;;;;30.45;20.58;;;3.50;99.90;;;;;;5073013;28;20047;-85
2020/12/31 08:19:37;;;;;;;28.85;19.85;;;3.50;99.90;;;;;;5091793;28;20044;-85
2020/12/31 08:22:13;;;;;;;29.05;19.65;;;3.50;99.90;;;;;;5073125;28;20040;-85
2020/12/31 08:24:48;;;;;;;31.08;20.05;;;3.50;99.90;;;;;;5086341;28;20085;-84
2020/12/31 08:27:18;;;;;;;26.52;18.60;;;3.50;99.90;;;;;;5111099;28;20506;-84
2020/12/31 08:29:46;;;;;;;26.30;19.10;;;3.50;99.90;;;;;;5093474;28;20073;-85
2020/12/31 08:32:24;;;;;;;27.08;18.75;;;3.40;99.90;;;;;;5110820;28;20048;-85
2020/12/31 08:34:56;;;;;;;25.00;18.38;;;3.50;99.90;;;;;;5093718;28;20047;-83
2020/12/31 08:37:24;;;;;;;28.42;19.30;;;3.60;99.90;;;;;;5098402;28;20935;-85
2020/12/31 08:39:52;;;;;;;26.38;18.35;;;3.50;99.90;;;;;;5089979;28;20079;-85
2020/12/31 08:42:20;;;;;;;24.15;17.80;;;3.50;99.90;;;;;;5071642;28;20139;-88
2020/12/31 08:44:52;;;;;;;25.00;18.77;;;3.50;99.90;;;;;;5071872;28;20051;-85
2020/12/31 08:47:19;;;;;;;24.10;17.65;;;3.60;99.90;;;;;;5071982;28;20602;-85
2020/12/31 08:49:57;;;;;;;25.00;18.65;;;3.60;99.90;;;;;;5071669;28;20059;-84
2020/12/31 08:52:27;;;;;;;23.27;18.00;;;3.60;99.90;;;;;;5090601;28;20040;-84
2020/12/31 08:55:12;;;;;;;27.55;18.17;;;3.70;99.90;;;;;;5073480;28;20044;-86
2020/12/31 08:57:38;;;;;;;28.92;18.65;;;3.70;99.90;;;;;;5079163;28;20036;-86
2020/12/31 09:00:07;;;;;;;26.42;19.58;;;3.70;99.90;;;;;;5073571;28;20475;-89
2020/12/31 09:02:33;;;;;;;27.90;19.25;;;3.70;99.90;;;;;;5074098;28;20097;-85
2020/12/31 09:05:13;;;;;;;27.63;19.38;;;3.70;99.90;;;;;;5057390;28;20055;-85
2020/12/31 09:07:39;;;;;;;27.50;19.23;;;3.80;99.90;;;;;;5091672;28;20475;-86
2020/12/31 09:10:16;;;;;;;25.48;18.90;;;3.80;99.90;;;;;;5091308;28;20064;-89
2020/12/31 09:12:42;;;;;;;27.52;18.40;;;3.90;99.90;;;;;;5073523;28;20395;-84
2020/12/31 09:15:17;;;;;;;28.85;19.45;;;3.80;99.90;;;;;;5076937;28;20059;-85
2020/12/31 09:17:44;;;;;;;29.13;19.15;;;3.80;99.90;;;;;;5089987;28;20051;-85
2020/12/31 09:20:17;;;;;;;28.38;19.80;;;3.80;99.90;;;;;;5089710;28;20048;-84
2020/12/31 09:22:42;;;;;;;29.50;19.55;;;3.80;99.90;;;;;;5091336;28;20130;-84
2020/12/31 09:25:09;;;;;;;27.50;19.60;;;3.80;99.90;;;;;;5039649;28;20171;-85
2020/12/31 09:27:35;;;;;;;28.55;20.75;;;3.80;99.90;;;;;;5091341;28;20135;-84
2020/12/31 09:30:04;;;;;;;31.58;21.50;;;3.90;99.90;;;;;;5093645;28;20127;-85
2020/12/31 09:32:30;;;;;;;28.83;20.52;;;3.90;99.90;;;;;;5089826;28;20039;-85
2020/12/31 09:34:56;;;;;;;28.27;20.83;;;3.90;99.90;;;;;;5096440;28;20067;-86
2020/12/31 09:37:24;;;;;;;33.90;21.88;;;3.90;99.90;;;;;;5059015;28;20062;-85
2020/12/31 09:39:50;;;;;;;29.83;22.10;;;3.90;99.90;;;;;;5078667;28;20479;-85
2020/12/31 09:42:16;;;;;;;35.33;22.58;;;3.90;99.90;;;;;;5096136;28;20044;-86
2020/12/31 09:44:42;;;;;;;33.95;22.33;;;3.90;99.90;;;;;;5080204;28;20043;-85
2020/12/31 09:47:08;;;;;;;34.53;23.20;;;3.90;99.90;;;;;;5096617;28;20149;-89
2020/12/31 09:49:34;;;;;;;35.40;23.58;;;3.90;99.90;;;;;;5096856;28;20089;-85
2020/12/31 09:52:00;;;;;;;35.17;22.77;;;3.80;99.90;;;;;;5097078;28;20097;-86
2020/12/31 09:54:26;;;;;;;38.55;22.55;;;3.80;99.90;;;;;;5095114;28;20119;-86
2020/12/31 09:56:53;;;;;;;38.05;23.67;;;3.90;99.90;;;;;;5078577;28;20482;-85
2020/12/31 09:59:18;;;;;;;36.53;22.95;;;3.80;99.90;;;;;;5077728;28;20047;-85
2020/12/31 10:01:45;;;;;;;36.78;23.67;;;3.90;99.90;;;;;;5095939;28;20051;-86
2020/12/31 10:04:11;;;;;;;35.60;24.00;;;3.90;99.90;;;;;;5114377;28;20039;-87
2020/12/31 10:06:37;;;;;;;38.08;23.35;;;3.90;99.90;;;;;;5096518;28;20514;-85
2020/12/31 10:09:03;;;;;;;37.05;22.55;;;3.90;99.90;;;;;;5079369;28;20040;-85
2020/12/31 10:11:29;;;;;;;32.42;22.10;;;3.90;99.90;;;;;;5095661;28;20039;-87
2020/12/31 10:13:55;;;;;;;34.15;21.85;;;3.90;99.90;;;;;;5079470;28;20043;-85
2020/12/31 10:16:21;;;;;;;32.25;22.23;;;3.80;99.90;;;;;;5113206;28;20116;-86
2020/12/31 10:18:46;;;;;;;43.78;23.25;;;3.80;99.90;;;;;;5075709;28;20040;-86
2020/12/31 10:21:15;;;;;;;35.95;21.02;;;3.80;99.90;;;;;;5093336;28;20121;-90
2020/12/31 10:23:41;;;;;;;33.50;22.08;;;3.80;99.90;;;;;;5094124;28;20044;-85
2020/12/31 10:26:07;;;;;;;32.83;21.42;;;3.80;99.90;;;;;;5086232;28;20448;-85
2020/12/31 10:28:33;;;;;;;31.48;21.92;;;3.80;99.90;;;;;;5076799;28;20063;-85
2020/12/31 10:31:00;;;;;;;35.80;21.45;;;3.80;99.90;;;;;;5096404;28;20039;-85
2020/12/31 10:33:26;;;;;;;33.60;21.83;;;3.80;99.90;;;;;;5095601;28;20035;-86
2020/12/31 10:35:52;;;;;;;40.53;23.08;;;3.70;99.90;;;;;;5075701;28;20055;-88
2020/12/31 10:38:18;;;;;;;36.35;22.25;;;3.80;99.90;;;;;;5076305;28;20051;-88
2020/12/31 10:40:43;;;;;;;33.30;21.40;;;3.80;99.90;;;;;;5068336;28;20714;-86
2020/12/31 10:43:09;;;;;;;35.38;21.85;;;3.80;99.90;;;;;;5080846;28;20051;-86
2020/12/31 10:45:35;;;;;;;33.58;22.17;;;3.90;99.90;;;;;;5086437;28;20051;-86
2020/12/31 10:48:01;;;;;;;36.10;22.25;;;4.00;99.90;;;;;;5079324;28;20043;-87
2020/12/31 10:50:28;;;;;;;35.20;22.63;;;4.00;99.90;;;;;;5077386;28;20043;-91
2020/12/31 10:52:54;;;;;;;37.75;21.27;;;4.10;99.90;;;;;;5095577;28;20124;-87
2020/12/31 10:55:20;;;;;;;35.13;23.05;;;4.20;99.90;;;;;;5088005;28;20656;-88
2020/12/31 10:57:46;;;;;;;29.27;20.70;;;4.20;99.90;;;;;;5074902;28;20051;-88
2020/12/31 11:00:12;;;;;;;30.95;20.75;;;4.30;99.90;;;;;;5058372;28;20491;-90
2020/12/31 11:02:38;;;;;;;32.22;20.15;;;4.30;99.90;;;;;;5069029;28;20110;-87
2020/12/31 11:05:06;;;;;;;32.97;20.98;;;4.40;99.90;;;;;;5088700;28;20446;-88
2020/12/31 11:07:32;;;;;;;28.65;18.80;;;4.40;99.90;;;;;;5042112;28;20047;-90
2020/12/31 11:09:58;;;;;;;29.55;19.35;;;4.40;99.90;;;;;;5059458;28;20044;-89
2020/12/31 11:12:24;;;;;;;27.92;18.35;;;4.30;99.90;;;;;;5091563;28;20237;-92
2020/12/31 11:14:49;;;;;;;26.45;18.60;;;4.40;99.90;;;;;;5057308;28;20086;-88
2020/12/31 11:17:15;;;;;;;23.25;17.20;;;4.50;99.90;;;;;;5056264;28;20865;-91
2020/12/31 11:19:41;;;;;;;25.15;17.50;;;4.50;99.90;;;;;;5093581;28;20130;-89
2020/12/31 11:22:09;;;;;;;23.08;16.60;;;4.50;99.90;;;;;;5060352;28;20055;-88
2020/12/31 11:24:35;;;;;;;20.45;15.02;;;4.60;99.90;;;;;;5077173;28;20067;-89
2020/12/31 11:27:03;;;;;;;20.75;14.48;;;4.50;99.90;;;;;;5094427;28;20152;-87
2020/12/31 11:29:29;;;;;;;25.48;14.80;;;4.50;99.90;;;;;;5094308;28;20085;-89
2020/12/31 11:31:55;;;;;;;22.50;14.63;;;4.60;99.90;;;;;;5077697;28;20376;-89
2020/12/31 11:34:21;;;;;;;21.77;14.57;;;4.60;99.90;;;;;;5094577;28;20471;-88
2020/12/31 11:36:47;;;;;;;20.58;14.93;;;4.60;99.90;;;;;;5094589;28;20047;-88
2020/12/31 11:39:12;;;;;;;20.77;14.63;;;4.60;99.90;;;;;;5078143;28;20040;-89
2020/12/31 11:41:38;;;;;;;19.33;15.38;;;4.70;99.90;;;;;;5060709;28;20498;-88
2020/12/31 11:44:04;;;;;;;21.15;15.18;;;4.70;99.90;;;;;;5061454;28;20104;-89
2020/12/31 11:46:30;;;;;;;21.83;13.82;;;4.70;99.90;;;;;;5077208;28;20031;-88
2020/12/31 11:48:55;;;;;;;19.00;13.85;;;4.70;99.90;;;;;;5061332;28;20120;-89
2020/12/31 11:51:21;;;;;;;18.70;13.43;;;4.70;99.90;;;;;;5077013;28;20059;-88
2020/12/31 11:53:47;;;;;;;18.08;12.85;;;4.70;99.90;;;;;;5077872;28;20040;-88
2020/12/31 11:56:13;;;;;;;19.42;13.30;;;4.70;99.90;;;;;;5112357;28;20043;-89
2020/12/31 11:58:39;;;;;;;22.35;13.93;;;4.70;99.90;;;;;;5094218;28;20031;-89
2020/12/31 12:01:05;;;;;;;17.25;13.20;;;4.80;99.90;;;;;;5077314;28;20046;-89
2020/12/31 12:03:30;;;;;;;24.52;16.02;;;4.90;99.90;;;;;;5094223;28;20073;-88
2020/12/31 12:05:57;;;;;;;22.98;16.10;;;4.90;99.90;;;;;;5077742;28;20403;-89
2020/12/31 12:08:27;;;;;;;18.90;12.98;;;4.90;99.90;;;;;;5094395;28;20047;-91
2020/12/31 12:10:55;;;;;;;15.32;12.63;;;4.90;99.90;;;;;;5062461;28;20066;-88
2020/12/31 12:13:21;;;;;;;14.65;11.60;;;4.80;99.70;;;;;;5061144;28;20043;-92
2020/12/31 12:15:47;;;;;;;15.27;11.57;;;4.90;99.90;;;;;;5076944;28;20048;-89
2020/12/31 12:18:13;;;;;;;17.63;13.02;;;4.90;99.80;;;;;;5094194;28;20070;-88
2020/12/31 12:20:39;;;;;;;16.38;12.30;;;5.00;99.90;;;;;;5093627;28;20067;-88
2020/12/31 12:23:04;;;;;;;16.42;12.77;;;5.00;99.60;;;;;;5094127;28;20500;-88
2020/12/31 12:25:30;;;;;;;16.08;12.82;;;4.90;99.70;;;;;;5076498;28;20047;-89
2020/12/31 12:27:56;;;;;;;14.90;11.40;;;4.90;99.70;;;;;;5057428;28;20047;-89
2020/12/31 12:30:22;;;;;;;17.45;11.70;;;4.90;99.60;;;;;;5073419;28;20082;-95
2020/12/31 12:32:50;;;;;;;14.32;11.13;;;4.90;99.40;;;;;;5091594;28;20466;-88
2020/12/31 12:35:16;;;;;;;11.52;10.35;;;4.90;99.20;;;;;;5057069;28;20047;-88
2020/12/31 12:37:41;;;;;;;15.13;11.43;;;4.90;99.40;;;;;;5084341;28;20035;-88
2020/12/31 12:40:08;;;;;;;12.88;10.70;;;4.90;99.00;;;;;;5077360;28;20039;-88
2020/12/31 12:42:37;;;;;;;13.80;11.57;;;4.90;98.90;;;;;;5092713;28;20116;-89